Time;durP1;ratioP1;P1;durP2;ratioP2;P2;SDS_P1;SDS_P2;PMS_P1;PMS_P2;Temp;Humidity;BMP_temperature;BMP_pressure;BME280_temperature;BME280_humidity;BME280_pressure;Samples;Min_cycle;Max_cycle;Signal;HPM_P1;HPM_P2
2022/06/14 00:02:59;;;;;;;2.10;0.98;;;;;;;;;;7397750;19;20042;-85
2022/06/14 00:05:25;;;;;;;5.18;0.95;;;;;;;;;;7396762;19;20015;-85
2022/06/14 00:07:50;;;;;;;3.72;1.05;;;;;;;;;;7392274;19;20008;-84
2022/06/14 00:10:15;;;;;;;1.88;0.77;;;;;;;;;;7391054;19;20007;-85
2022/06/14 00:12:41;;;;;;;0.85;0.80;;;;;;;;;;7392579;19;19998;-85
2022/06/14 00:15:07;;;;;;;1.80;1.02;;;;;;;;;;7394052;19;20575;-85
2022/06/14 00:17:32;;;;;;;3.72;1.20;;;;;;;;;;7393505;19;20022;-85
2022/06/14 00:19:57;;;;;;;1.77;0.93;;;;;;;;;;7392936;19;20470;-85
2022/06/14 00:22:23;;;;;;;2.67;1.08;;;;;;;;;;7396293;19;20599;-85
2022/06/14 00:24:48;;;;;;;2.97;1.00;;;;;;;;;;7390442;19;20010;-85
2022/06/14 00:27:13;;;;;;;1.92;1.00;;;;;;;;;;7395077;19;20014;-85
2022/06/14 00:29:39;;;;;;;1.05;0.82;;;;;;;;;;7395982;19;19995;-85
2022/06/14 00:32:04;;;;;;;0.60;0.60;;;;;;;;;;7394231;19;20008;-85
2022/06/14 00:34:30;;;;;;;0.60;0.60;;;;;;;;;;7397677;19;20010;-85
2022/06/14 00:36:56;;;;;;;2.28;0.90;;;;;;;;;;7398917;19;20018;-85
2022/06/14 00:39:22;;;;;;;1.83;1.13;;;;;;;;;;7401568;19;20465;-84
2022/06/14 00:41:51;;;;;;;3.15;1.05;;;;;;;;;;7399566;19;20006;-84
2022/06/14 00:44:25;;;;;;;1.88;0.95;;;;;;;;;;7399033;19;20006;-84
2022/06/14 00:47:09;;;;;;;3.22;1.13;;;;;;;;;;7399414;19;20023;-85
2022/06/14 00:49:58;;;;;;;4.85;1.10;;;;;;;;;;7402630;19;19994;-85
2022/06/14 00:52:27;;;;;;;2.45;0.93;;;;;;;;;;7396181;19;20011;-84
2022/06/14 00:55:07;;;;;;;2.35;0.98;;;;;;;;;;7397749;19;20002;-85
2022/06/14 00:57:38;;;;;;;2.33;1.20;;;;;;;;;;7402222;19;20451;-84
2022/06/14 01:00:15;;;;;;;3.58;1.13;;;;;;;;;;7399110;19;20011;-85
2022/06/14 01:02:46;;;;;;;2.83;1.13;;;;;;;;;;7404171;19;20017;-84
2022/06/14 01:05:19;;;;;;;1.10;1.00;;;;;;;;;;7401913;19;20373;-84
2022/06/14 01:07:47;;;;;;;1.70;0.85;;;;;;;;;;7397100;19;20015;-85
2022/06/14 01:10:33;;;;;;;2.08;1.00;;;;;;;;;;7398525;19;20035;-85
2022/06/14 01:13:03;;;;;;;1.38;0.85;;;;;;;;;;7399688;19;20168;-85
2022/06/14 01:15:32;;;;;;;1.58;1.10;;;;;;;;;;7401927;19;19998;-85
2022/06/14 01:18:04;;;;;;;2.17;1.23;;;;;;;;;;7398633;19;20295;-85
2022/06/14 01:20:30;;;;;;;3.00;1.20;;;;;;;;;;7400356;19;20018;-85
2022/06/14 01:22:56;;;;;;;2.00;0.90;;;;;;;;;;7399751;19;20351;-85
2022/06/14 01:25:24;;;;;;;2.03;1.40;;;;;;;;;;7399122;19;20512;-84
2022/06/14 01:27:51;;;;;;;1.77;1.00;;;;;;;;;;7401648;19;20009;-85
2022/06/14 01:30:28;;;;;;;1.00;0.90;;;;;;;;;;7397815;19;20007;-84
2022/06/14 01:32:57;;;;;;;3.42;1.40;;;;;;;;;;7400719;19;20150;-84
2022/06/14 01:35:28;;;;;;;1.65;1.10;;;;;;;;;;7401063;19;20038;-85
2022/06/14 01:37:56;;;;;;;3.88;1.20;;;;;;;;;;7401345;19;20010;-85
2022/06/14 01:40:44;;;;;;;2.00;0.98;;;;;;;;;;7400274;19;20038;-85
2022/06/14 01:43:24;;;;;;;6.20;1.30;;;;;;;;;;7394785;19;20036;-85
2022/06/14 01:46:16;;;;;;;1.67;1.08;;;;;;;;;;7400283;19;20017;-84
2022/06/14 01:52:23;;;;;;;2.28;0.90;;;;;;;;;;7396833;19;20014;-84
2022/06/14 01:54:58;;;;;;;3.35;1.20;;;;;;;;;;7395795;19;19998;-85
2022/06/14 01:57:31;;;;;;;1.27;1.05;;;;;;;;;;7397088;19;20006;-85
2022/06/14 02:00:38;;;;;;;1.90;1.00;;;;;;;;;;7401539;19;19990;-85
2022/06/14 02:06:28;;;;;;;3.00;1.00;;;;;;;;;;7399895;19;20018;-84
2022/06/14 02:09:21;;;;;;;2.53;0.90;;;;;;;;;;7398479;19;20010;-85
2022/06/14 02:11:47;;;;;;;3.88;0.73;;;;;;;;;;7399597;19;19995;-85
2022/06/14 02:14:20;;;;;;;3.00;1.17;;;;;;;;;;7397799;19;20003;-85
2022/06/14 02:16:51;;;;;;;2.92;0.95;;;;;;;;;;7400394;19;20017;-85
2022/06/14 02:19:29;;;;;;;3.75;1.00;;;;;;;;;;7395210;19;20071;-85
2022/06/14 02:22:01;;;;;;;2.85;0.95;;;;;;;;;;7396720;19;20010;-85
2022/06/14 02:24:38;;;;;;;1.85;1.17;;;;;;;;;;7399506;19;20006;-84
2022/06/14 02:27:12;;;;;;;0.95;0.70;;;;;;;;;;7397637;19;20297;-85
2022/06/14 02:29:50;;;;;;;3.00;1.00;;;;;;;;;;7394780;19;19994;-84
2022/06/14 02:32:34;;;;;;;1.50;0.90;;;;;;;;;;7397321;19;20031;-84
2022/06/14 02:35:06;;;;;;;9.48;1.25;;;;;;;;;;7401052;19;20515;-85
2022/06/14 02:37:41;;;;;;;1.17;1.00;;;;;;;;;;7396069;19;20002;-84
2022/06/14 02:40:21;;;;;;;4.43;1.42;;;;;;;;;;7398264;19;19999;-84
2022/06/14 02:43:02;;;;;;;5.57;1.17;;;;;;;;;;7398786;19;20001;-84
2022/06/14 02:45:37;;;;;;;6.10;1.10;;;;;;;;;;7394958;19;20007;-84
2022/06/14 02:48:11;;;;;;;5.70;1.10;;;;;;;;;;7394763;19;20511;-85
2022/06/14 02:50:48;;;;;;;3.10;1.30;;;;;;;;;;7398995;19;20383;-85
2022/06/14 02:53:32;;;;;;;1.10;1.00;;;;;;;;;;7394179;19;20008;-84
2022/06/14 02:56:07;;;;;;;1.67;1.00;;;;;;;;;;7394555;19;20034;-84
2022/06/14 02:58:38;;;;;;;1.98;0.80;;;;;;;;;;7397436;19;20006;-85
2022/06/14 03:01:25;;;;;;;3.13;1.10;;;;;;;;;;7396084;19;20046;-84
2022/06/14 03:04:19;;;;;;;1.77;0.90;;;;;;;;;;7400824;19;19995;-84
2022/06/14 03:07:04;;;;;;;1.83;0.98;;;;;;;;;;7396471;19;20031;-84
2022/06/14 03:09:32;;;;;;;3.47;2.22;;;;;;;;;;7397475;19;20028;-84
2022/06/14 03:12:05;;;;;;;1.85;0.80;;;;;;;;;;7393439;19;20054;-84
2022/06/14 03:15:01;;;;;;;5.53;1.38;;;;;;;;;;7397454;19;20011;-84
2022/06/14 03:17:53;;;;;;;1.10;0.85;;;;;;;;;;7391795;19;20006;-85
2022/06/14 03:20:43;;;;;;;1.45;0.70;;;;;;;;;;7394152;19;19999;-84
2022/06/14 03:23:17;;;;;;;1.95;0.95;;;;;;;;;;7396768;19;20532;-84
2022/06/14 03:25:54;;;;;;;2.55;1.00;;;;;;;;;;7397415;19;20018;-85
2022/06/14 03:28:36;;;;;;;2.15;0.98;;;;;;;;;;7395564;19;20367;-84
2022/06/14 03:31:10;;;;;;;2.17;1.05;;;;;;;;;;7391317;19;20003;-85
2022/06/14 03:33:48;;;;;;;1.25;0.88;;;;;;;;;;7398258;19;20063;-84
2022/06/14 03:36:15;;;;;;;4.82;1.35;;;;;;;;;;7394302;19;20031;-84
2022/06/14 03:38:51;;;;;;;1.65;1.15;;;;;;;;;;7394340;19;20061;-84
2022/06/14 03:41:20;;;;;;;1.58;0.90;;;;;;;;;;7394741;19;20133;-84
2022/06/14 03:43:47;;;;;;;2.05;1.00;;;;;;;;;;7396096;19;20014;-84
2022/06/14 03:46:38;;;;;;;2.50;1.10;;;;;;;;;;7396819;19;20010;-84
2022/06/14 03:49:09;;;;;;;1.10;1.00;;;;;;;;;;7393663;19;20017;-84
2022/06/14 03:51:46;;;;;;;1.10;0.90;;;;;;;;;;7393014;19;20017;-84
2022/06/14 03:54:39;;;;;;;2.78;0.93;;;;;;;;;;7394298;19;20018;-84
2022/06/14 03:57:25;;;;;;;2.47;1.10;;;;;;;;;;7395042;19;20006;-84
2022/06/14 03:59:57;;;;;;;1.55;0.90;;;;;;;;;;7390603;19;20002;-84
2022/06/14 04:02:55;;;;;;;2.83;1.40;;;;;;;;;;7392304;19;20005;-84
2022/06/14 04:05:32;;;;;;;2.85;1.30;;;;;;;;;;7392782;19;20035;-84
2022/06/14 04:08:35;;;;;;;3.55;1.27;;;;;;;;;;7400230;19;20013;-84
2022/06/14 04:11:12;;;;;;;2.70;0.88;;;;;;;;;;7399721;19;20070;-84
2022/06/14 04:13:42;;;;;;;4.03;1.00;;;;;;;;;;7399703;19;20015;-83
2022/06/14 04:16:26;;;;;;;3.05;1.20;;;;;;;;;;7403638;19;20002;-85
2022/06/14 04:18:57;;;;;;;1.00;0.90;;;;;;;;;;7399364;19;20002;-85
2022/06/14 04:21:38;;;;;;;1.85;0.90;;;;;;;;;;7398463;19;19999;-84
2022/06/14 04:24:25;;;;;;;4.05;1.40;;;;;;;;;;7402419;19;20014;-85
2022/06/14 04:27:06;;;;;;;2.08;1.30;;;;;;;;;;7404963;19;20396;-84
2022/06/14 04:29:44;;;;;;;4.68;1.88;;;;;;;;;;7397295;19;20010;-85
2022/06/14 04:32:25;;;;;;;1.02;0.90;;;;;;;;;;7393273;19;20019;-84
2022/06/14 04:34:56;;;;;;;1.48;1.08;;;;;;;;;;7395165;19;20331;-84
2022/06/14 04:37:31;;;;;;;1.85;1.00;;;;;;;;;;7396533;19;20149;-83
2022/06/14 04:40:01;;;;;;;4.93;1.13;;;;;;;;;;7397974;19;20038;-84
2022/06/14 04:42:33;;;;;;;2.00;1.13;;;;;;;;;;7397491;19;20010;-84
2022/06/14 04:45:07;;;;;;;1.60;0.93;;;;;;;;;;7397544;19;20002;-84
2022/06/14 04:47:48;;;;;;;2.13;1.30;;;;;;;;;;7396850;19;20013;-84
2022/06/14 04:50:17;;;;;;;1.90;1.20;;;;;;;;;;7392458;19;20121;-84
2022/06/14 04:52:47;;;;;;;5.70;1.88;;;;;;;;;;7391571;19;20006;-84
2022/06/14 04:55:17;;;;;;;1.48;0.90;;;;;;;;;;7397936;19;20088;-84
2022/06/14 04:57:46;;;;;;;1.48;0.93;;;;;;;;;;7391613;19;20343;-84
2022/06/14 05:00:15;;;;;;;1.38;1.05;;;;;;;;;;7392014;19;20003;-84
2022/06/14 05:02:44;;;;;;;1.92;0.90;;;;;;;;;;7394941;19;20014;-84
2022/06/14 05:05:35;;;;;;;2.97;1.92;;;;;;;;;;7396455;19;20451;-85
2022/06/14 05:08:10;;;;;;;3.95;1.65;;;;;;;;;;7393691;19;20049;-84
2022/06/14 05:10:48;;;;;;;1.73;1.30;;;;;;;;;;7398006;19;20002;-85
2022/06/14 05:13:44;;;;;;;2.92;1.30;;;;;;;;;;7392979;19;20003;-84
2022/06/14 05:16:16;;;;;;;2.42;1.17;;;;;;;;;;7394262;19;20006;-84
2022/06/14 05:18:52;;;;;;;2.05;1.30;;;;;;;;;;7392478;19;20419;-84
2022/06/14 05:21:47;;;;;;;3.10;1.48;;;;;;;;;;7390467;19;20011;-85
2022/06/14 05:24:13;;;;;;;3.80;1.30;;;;;;;;;;7393518;19;20005;-84
2022/06/14 05:27:13;;;;;;;2.85;1.30;;;;;;;;;;7391429;19;20259;-84
2022/06/14 05:29:48;;;;;;;1.10;1.00;;;;;;;;;;7394528;19;20014;-85
2022/06/14 05:32:23;;;;;;;3.60;1.30;;;;;;;;;;7393457;19;19995;-84
2022/06/14 05:35:02;;;;;;;1.13;1.02;;;;;;;;;;7392257;19;20325;-84
2022/06/14 05:37:42;;;;;;;14.93;1.50;;;;;;;;;;7394603;19;20009;-85
2022/06/14 05:40:10;;;;;;;3.20;1.45;;;;;;;;;;7398787;19;20017;-85
2022/06/14 05:42:50;;;;;;;1.92;1.20;;;;;;;;;;7396897;19;20101;-84
2022/06/14 05:45:21;;;;;;;6.40;1.45;;;;;;;;;;7391894;19;20003;-85
2022/06/14 05:47:55;;;;;;;4.03;1.33;;;;;;;;;;7393518;19;20033;-84
2022/06/14 05:50:25;;;;;;;2.30;1.45;;;;;;;;;;7392414;19;20014;-84
2022/06/14 05:53:02;;;;;;;9.82;4.40;;;;;;;;;;7395942;19;20008;-84
2022/06/14 05:55:49;;;;;;;6.03;2.20;;;;;;;;;;7393624;19;19999;-84
2022/06/14 05:58:37;;;;;;;3.03;1.70;;;;;;;;;;7392812;19;20121;-84
2022/06/14 06:01:11;;;;;;;2.13;1.60;;;;;;;;;;7393163;19;19991;-85
2022/06/14 06:04:02;;;;;;;3.30;1.35;;;;;;;;;;7390843;19;20007;-85
2022/06/14 06:06:36;;;;;;;4.43;1.50;;;;;;;;;;7395729;19;20078;-85
2022/06/14 06:09:08;;;;;;;8.73;1.60;;;;;;;;;;7389934;19;20417;-84
2022/06/14 06:11:44;;;;;;;3.38;1.20;;;;;;;;;;7391543;19;20450;-84
2022/06/14 06:14:19;;;;;;;3.10;1.73;;;;;;;;;;7393895;19;20032;-84
2022/06/14 06:17:04;;;;;;;2.90;1.88;;;;;;;;;;7392175;19;20022;-84
2022/06/14 06:19:59;;;;;;;6.32;2.90;;;;;;;;;;7393158;19;20021;-85
2022/06/14 06:22:50;;;;;;;4.72;2.30;;;;;;;;;;7393118;19;20028;-85
2022/06/14 06:25:21;;;;;;;3.70;1.50;;;;;;;;;;7393123;19;20449;-85
2022/06/14 06:27:52;;;;;;;5.45;1.65;;;;;;;;;;7395471;19;20027;-85
2022/06/14 06:30:23;;;;;;;4.40;2.08;;;;;;;;;;7394151;19;20346;-85
2022/06/14 06:32:48;;;;;;;3.42;1.55;;;;;;;;;;7391382;19;20023;-85
2022/06/14 06:35:14;;;;;;;3.58;1.63;;;;;;;;;;7392618;19;19999;-85
2022/06/14 06:37:46;;;;;;;3.65;1.88;;;;;;;;;;7395011;19;20006;-85
2022/06/14 06:40:19;;;;;;;3.75;1.60;;;;;;;;;;7391205;19;20013;-85
2022/06/14 06:42:58;;;;;;;2.15;1.40;;;;;;;;;;7392063;19;20123;-85
2022/06/14 06:45:30;;;;;;;5.28;1.60;;;;;;;;;;7395415;19;20002;-85
2022/06/14 06:48:02;;;;;;;4.22;1.58;;;;;;;;;;7394598;19;20477;-85
2022/06/14 06:50:47;;;;;;;2.72;1.50;;;;;;;;;;7394446;19;19999;-85
2022/06/14 06:53:14;;;;;;;3.03;1.40;;;;;;;;;;7390417;19;20066;-85
2022/06/14 06:55:48;;;;;;;4.30;1.33;;;;;;;;;;7389428;19;20066;-85
2022/06/14 06:58:31;;;;;;;4.05;1.83;;;;;;;;;;7392131;19;20015;-85
2022/06/14 07:01:01;;;;;;;8.05;2.47;;;;;;;;;;7394362;19;20339;-85
2022/06/14 07:03:47;;;;;;;4.75;1.10;;;;;;;;;;7394331;19;20339;-85
2022/06/14 07:06:21;;;;;;;3.30;1.90;;;;;;;;;;7387853;19;20056;-85
2022/06/14 07:08:53;;;;;;;5.20;1.85;;;;;;;;;;7388806;19;20006;-86
2022/06/14 07:11:23;;;;;;;4.32;1.60;;;;;;;;;;7391242;19;20011;-85
2022/06/14 07:13:48;;;;;;;1.75;1.33;;;;;;;;;;7383975;19;20036;-85
2022/06/14 07:16:29;;;;;;;4.00;1.50;;;;;;;;;;7394731;19;20006;-85
2022/06/14 07:19:00;;;;;;;2.38;1.42;;;;;;;;;;7390429;19;20018;-85
2022/06/14 07:21:32;;;;;;;5.95;1.65;;;;;;;;;;7393021;19;20463;-85
2022/06/14 07:24:04;;;;;;;2.45;1.58;;;;;;;;;;7395577;19;20007;-85
2022/06/14 07:26:40;;;;;;;2.00;1.35;;;;;;;;;;7396910;19;20010;-85
2022/06/14 07:29:14;;;;;;;4.43;1.65;;;;;;;;;;7397389;19;20023;-85
2022/06/14 07:31:46;;;;;;;3.60;1.60;;;;;;;;;;7392074;19;19998;-85
2022/06/14 07:34:14;;;;;;;3.20;1.65;;;;;;;;;;7395521;19;20014;-85
2022/06/14 07:36:54;;;;;;;5.03;1.90;;;;;;;;;;7396663;19;20023;-85
2022/06/14 07:39:35;;;;;;;4.22;1.42;;;;;;;;;;7390144;19;20006;-85
2022/06/14 07:42:30;;;;;;;3.42;1.38;;;;;;;;;;7395059;19;20039;-85
2022/06/14 07:45:07;;;;;;;4.93;1.60;;;;;;;;;;7398830;19;20003;-85
2022/06/14 07:47:42;;;;;;;2.53;1.08;;;;;;;;;;7398824;19;20018;-84
2022/06/14 07:50:14;;;;;;;;;;;;;;;;;;7401523;19;20014;-85
2022/06/14 07:53:08;;;;;;;3.15;1.50;;;;;;;;;;7399452;19;19919;-85
2022/06/14 07:55:37;;;;;;;2.45;1.40;;;;;;;;;;7400024;19;20074;-85
2022/06/14 07:58:35;;;;;;;2.53;1.48;;;;;;;;;;7398801;19;19994;-85
2022/06/14 08:01:09;;;;;;;3.03;1.42;;;;;;;;;;7395485;19;20013;-85
2022/06/14 08:03:53;;;;;;;3.63;1.40;;;;;;;;;;7401789;19;20006;-85
2022/06/14 08:06:28;;;;;;;7.05;1.77;;;;;;;;;;7399469;19;20007;-85
2022/06/14 08:09:01;;;;;;;2.20;1.35;;;;;;;;;;7395965;19;19998;-85
2022/06/14 08:11:51;;;;;;;2.22;1.63;;;;;;;;;;7396272;19;20006;-83
2022/06/14 08:14:35;;;;;;;3.95;1.58;;;;;;;;;;7399235;19;20027;-85
2022/06/14 08:17:08;;;;;;;2.70;1.10;;;;;;;;;;7396689;19;19995;-85
2022/06/14 08:19:44;;;;;;;4.47;1.50;;;;;;;;;;7397497;19;20006;-85
2022/06/14 08:22:15;;;;;;;2.63;1.58;;;;;;;;;;7394052;19;20450;-85
2022/06/14 08:24:49;;;;;;;5.57;1.60;;;;;;;;;;7398196;19;20005;-86
2022/06/14 08:27:23;;;;;;;4.15;1.42;;;;;;;;;;7401013;19;20009;-86
2022/06/14 08:30:03;;;;;;;2.45;1.40;;;;;;;;;;7402822;19;20003;-84
2022/06/14 08:32:38;;;;;;;7.30;1.77;;;;;;;;;;7396507;19;20003;-85
2022/06/14 08:35:24;;;;;;;2.67;1.30;;;;;;;;;;7398697;19;20003;-86
2022/06/14 08:38:06;;;;;;;4.07;1.65;;;;;;;;;;7400660;19;20038;-83
2022/06/14 08:40:47;;;;;;;3.85;1.30;;;;;;;;;;7400683;19;20477;-85
2022/06/14 08:43:20;;;;;;;4.63;1.40;;;;;;;;;;7395964;19;20007;-85
2022/06/14 08:46:20;;;;;;;3.00;1.27;;;;;;;;;;7400761;19;20006;-83
2022/06/14 08:49:08;;;;;;;2.38;1.30;;;;;;;;;;7400165;19;20018;-85
2022/06/14 08:51:45;;;;;;;2.30;1.40;;;;;;;;;;7396486;19;20042;-85
2022/06/14 08:54:41;;;;;;;6.97;1.60;;;;;;;;;;7426272;19;20015;-85
2022/06/14 08:57:23;;;;;;;3.97;1.48;;;;;;;;;;7430021;19;19998;-84
2022/06/14 08:59:51;;;;;;;4.30;1.50;;;;;;;;;;7424665;19;19997;-82
2022/06/14 09:03:00;;;;;;;4.00;1.52;;;;;;;;;;7427530;19;20035;-85
2022/06/14 09:05:44;;;;;;;4.72;1.58;;;;;;;;;;7428431;19;20014;-84
2022/06/14 09:08:47;;;;;;;3.85;1.30;;;;;;;;;;7426012;19;20031;-85
2022/06/14 09:11:37;;;;;;;1.20;1.10;;;;;;;;;;7425005;19;20014;-86
2022/06/14 09:14:09;;;;;;;2.75;1.60;;;;;;;;;;7406191;19;20027;-86
2022/06/14 09:16:40;;;;;;;7.03;1.35;;;;;;;;;;7405432;19;20015;-86
2022/06/14 09:19:30;;;;;;;5.07;2.75;;;;;;;;;;7401177;19;20351;-86
2022/06/14 09:22:20;;;;;;;3.65;1.80;;;;;;;;;;7403426;19;20474;-86
2022/06/14 09:24:54;;;;;;;3.38;1.48;;;;;;;;;;7402449;19;20025;-85
2022/06/14 09:27:35;;;;;;;4.55;1.73;;;;;;;;;;7402918;19;20078;-86
2022/06/14 09:30:07;;;;;;;5.70;1.50;;;;;;;;;;7401411;19;20131;-86
2022/06/14 09:33:10;;;;;;;4.35;1.13;;;;;;;;;;7403693;19;20014;-86
2022/06/14 09:35:49;;;;;;;2.30;1.35;;;;;;;;;;7404169;19;20008;-86
2022/06/14 09:38:27;;;;;;;1.42;1.00;;;;;;;;;;7402265;19;20391;-85
2022/06/14 09:41:07;;;;;;;2.85;1.10;;;;;;;;;;7405101;19;20058;-86
2022/06/14 09:43:36;;;;;;;7.13;3.35;;;;;;;;;;7402149;19;20014;-86
2022/06/14 09:46:13;;;;;;;5.65;1.67;;;;;;;;;;7404628;19;19998;-86
2022/06/14 09:48:50;;;;;;;3.67;1.40;;;;;;;;;;7399339;19;19995;-86
2022/06/14 09:51:28;;;;;;;2.25;1.30;;;;;;;;;;7403621;19;20032;-86
2022/06/14 09:54:32;;;;;;;3.53;1.60;;;;;;;;;;7404698;19;20014;-86
2022/06/14 09:57:06;;;;;;;2.38;1.35;;;;;;;;;;7396678;19;20027;-86
2022/06/14 09:59:57;;;;;;;1.52;1.02;;;;;;;;;;7400266;19;20018;-86
2022/06/14 10:02:46;;;;;;;2.30;0.90;;;;;;;;;;7405296;19;20005;-86
2022/06/14 10:05:33;;;;;;;1.95;1.00;;;;;;;;;;7398068;19;20002;-85
2022/06/14 10:08:26;;;;;;;3.05;1.27;;;;;;;;;;7400255;19;20014;-86
2022/06/14 10:11:10;;;;;;;2.10;0.82;;;;;;;;;;7399179;19;20017;-86
2022/06/14 10:13:56;;;;;;;5.43;1.23;;;;;;;;;;7402991;19;20007;-86
2022/06/14 10:16:46;;;;;;;1.75;1.10;;;;;;;;;;7400893;19;20461;-86
2022/06/14 10:19:41;;;;;;;4.18;1.10;;;;;;;;;;7398967;19;20016;-86
2022/06/14 10:22:15;;;;;;;2.10;1.15;;;;;;;;;;7395231;19;20009;-86
2022/06/14 10:24:59;;;;;;;3.65;1.40;;;;;;;;;;7399909;19;20011;-85
2022/06/14 10:28:11;;;;;;;3.25;1.20;;;;;;;;;;7399647;19;20006;-85
2022/06/14 10:31:10;;;;;;;3.15;1.52;;;;;;;;;;7398812;19;20035;-85
2022/06/14 10:33:52;;;;;;;1.90;1.05;;;;;;;;;;7400590;19;20014;-86
2022/06/14 10:36:59;;;;;;;2.90;1.13;;;;;;;;;;7400172;19;20030;-85
2022/06/14 10:39:40;;;;;;;2.72;1.10;;;;;;;;;;7399875;19;20002;-85
2022/06/14 10:42:13;;;;;;;2.20;1.27;;;;;;;;;;7398223;19;20494;-85
2022/06/14 10:45:00;;;;;;;2.63;1.00;;;;;;;;;;7399015;19;20015;-85
2022/06/14 10:47:28;;;;;;;1.92;1.17;;;;;;;;;;7401499;19;20280;-84
2022/06/14 10:50:10;;;;;;;2.47;1.10;;;;;;;;;;7393699;19;20023;-83
2022/06/14 10:52:39;;;;;;;2.15;1.00;;;;;;;;;;7388529;19;20029;-84
2022/06/14 10:55:04;;;;;;;4.38;2.03;;;;;;;;;;7393394;19;20015;-85
2022/06/14 10:57:48;;;;;;;1.70;0.98;;;;;;;;;;7391022;19;20023;-84
2022/06/14 11:00:29;;;;;;;2.45;1.20;;;;;;;;;;7395311;19;20089;-84
2022/06/14 11:03:32;;;;;;;1.35;0.98;;;;;;;;;;7391686;19;20007;-83
2022/06/14 11:06:35;;;;;;;5.07;1.05;;;;;;;;;;7393121;19;20011;-84
2022/06/14 11:09:24;;;;;;;4.78;1.00;;;;;;;;;;7392496;19;20350;-83
2022/06/14 11:12:31;;;;;;;3.05;1.00;;;;;;;;;;7394120;19;20001;-84
2022/06/14 11:15:09;;;;;;;2.80;0.90;;;;;;;;;;7391110;19;20002;-84
2022/06/14 11:18:02;;;;;;;3.03;1.23;;;;;;;;;;7390083;19;20033;-84
2022/06/14 11:20:33;;;;;;;2.33;1.10;;;;;;;;;;7391550;19;20010;-84
2022/06/14 11:23:04;;;;;;;1.70;0.90;;;;;;;;;;7393996;19;20054;-85
2022/06/14 11:25:35;;;;;;;1.27;1.00;;;;;;;;;;7394780;19;20062;-84
2022/06/14 11:28:38;;;;;;;1.85;1.08;;;;;;;;;;7388206;19;20014;-84
2022/06/14 11:31:22;;;;;;;2.88;1.20;;;;;;;;;;7392350;19;20006;-83
2022/06/14 11:34:14;;;;;;;3.08;1.25;;;;;;;;;;7389883;19;20006;-84
2022/06/14 11:37:04;;;;;;;2.15;1.40;;;;;;;;;;7389676;19;20006;-85
2022/06/14 11:39:42;;;;;;;2.20;1.20;;;;;;;;;;7390365;19;20006;-85
2022/06/14 11:43:02;;;;;;;4.18;1.13;;;;;;;;;;7391974;19;19999;-84
2022/06/14 11:45:36;;;;;;;1.83;1.20;;;;;;;;;;7387478;19;20561;-84
2022/06/14 11:48:23;;;;;;;5.25;1.42;;;;;;;;;;7390693;19;20010;-83
2022/06/14 11:51:04;;;;;;;3.15;1.20;;;;;;;;;;7388607;19;20323;-84
2022/06/14 11:53:35;;;;;;;2.28;1.20;;;;;;;;;;7392408;19;20014;-83
2022/06/14 11:56:11;;;;;;;4.80;2.40;;;;;;;;;;7392098;19;19995;-85
2022/06/14 11:58:53;;;;;;;2.70;1.42;;;;;;;;;;7388310;19;20348;-84
2022/06/14 12:01:31;;;;;;;8.25;4.00;;;;;;;;;;7387806;19;20019;-84
2022/06/14 12:04:15;;;;;;;4.22;1.70;;;;;;;;;;7388765;19;20018;-84
2022/06/14 12:07:02;;;;;;;3.67;1.33;;;;;;;;;;7393171;19;19998;-85
2022/06/14 12:09:54;;;;;;;7.07;1.48;;;;;;;;;;7388467;19;20513;-84
2022/06/14 12:12:38;;;;;;;2.58;1.17;;;;;;;;;;7388926;19;20019;-84
2022/06/14 12:15:10;;;;;;;1.88;1.00;;;;;;;;;;7390015;19;20008;-83
2022/06/14 12:17:47;;;;;;;3.05;0.98;;;;;;;;;;7391123;19;20006;-84
2022/06/14 12:20:24;;;;;;;4.50;1.60;;;;;;;;;;7389687;19;20014;-85
2022/06/14 12:23:13;;;;;;;5.10;1.23;;;;;;;;;;7391789;19;20009;-84
2022/06/14 12:29:05;;;;;;;3.75;1.33;;;;;;;;;;7393862;19;20010;-84
2022/06/14 12:31:50;;;;;;;3.08;1.08;;;;;;;;;;7392580;19;20110;-85
2022/06/14 12:34:46;;;;;;;1.53;0.93;;;;;;;;;;7394742;19;20015;-83
2022/06/14 12:37:32;;;;;;;2.42;1.02;;;;;;;;;;7395797;19;20279;-84
2022/06/14 12:40:06;;;;;;;3.17;1.40;;;;;;;;;;7395971;19;20010;-85
2022/06/14 12:42:48;;;;;;;7.40;1.20;;;;;;;;;;7398334;19;20006;-83
2022/06/14 12:45:23;;;;;;;1.88;1.10;;;;;;;;;;7399098;19;20307;-84
2022/06/14 12:47:48;;;;;;;3.83;1.20;;;;;;;;;;7392382;19;20469;-84
2022/06/14 12:50:24;;;;;;;2.50;0.98;;;;;;;;;;7392888;19;20014;-84
2022/06/14 12:53:05;;;;;;;2.25;1.15;;;;;;;;;;7392385;19;19998;-84
2022/06/14 12:56:08;;;;;;;2.40;1.15;;;;;;;;;;7398849;19;20010;-83
2022/06/14 12:58:45;;;;;;;1.92;1.00;;;;;;;;;;7393998;19;20516;-83
2022/06/14 13:01:20;;;;;;;2.20;1.08;;;;;;;;;;7395544;19;20018;-84
2022/06/14 13:03:54;;;;;;;3.85;1.13;;;;;;;;;;7396619;19;20473;-84
2022/06/14 13:06:49;;;;;;;2.05;1.10;;;;;;;;;;7395612;19;20007;-84
2022/06/14 13:09:35;;;;;;;3.88;1.00;;;;;;;;;;7392681;19;20492;-85
2022/06/14 13:12:13;;;;;;;1.88;1.20;;;;;;;;;;7395272;19;19998;-84
2022/06/14 13:14:53;;;;;;;1.52;1.00;;;;;;;;;;7394051;19;20082;-85
2022/06/14 13:17:19;;;;;;;2.72;1.05;;;;;;;;;;7395847;19;20014;-83
2022/06/14 13:20:30;;;;;;;1.80;1.13;;;;;;;;;;7395031;19;20360;-84
2022/06/14 13:23:23;;;;;;;4.00;1.05;;;;;;;;;;7392210;19;20018;-84
2022/06/14 13:25:48;;;;;;;3.33;1.45;;;;;;;;;;7396315;19;20709;-84
2022/06/14 13:28:29;;;;;;;5.55;1.90;;;;;;;;;;7391032;19;19998;-85
2022/06/14 13:31:52;;;;;;;1.45;1.20;;;;;;;;;;7392795;19;20007;-85
2022/06/14 13:34:39;;;;;;;2.40;1.00;;;;;;;;;;7393115;19;19998;-84
2022/06/14 13:37:38;;;;;;;2.22;0.85;;;;;;;;;;7391508;19;20010;-84
2022/06/14 13:40:20;;;;;;;1.48;0.98;;;;;;;;;;7392123;19;20469;-84
2022/06/14 13:42:57;;;;;;;3.15;1.10;;;;;;;;;;7396491;19;20014;-84
2022/06/14 13:45:33;;;;;;;2.85;1.13;;;;;;;;;;7393851;19;20070;-85
2022/06/14 13:48:22;;;;;;;2.28;1.25;;;;;;;;;;7393365;19;20013;-84
2022/06/14 13:50:54;;;;;;;2.20;0.90;;;;;;;;;;7396254;19;20026;-85
2022/06/14 13:53:26;;;;;;;2.08;1.08;;;;;;;;;;7394612;19;20482;-84
2022/06/14 13:56:26;;;;;;;3.30;1.00;;;;;;;;;;7396017;19;20010;-85
2022/06/14 13:59:05;;;;;;;4.00;1.20;;;;;;;;;;7392331;19;20003;-86
2022/06/14 14:01:52;;;;;;;1.80;0.90;;;;;;;;;;7393082;19;20026;-85
2022/06/14 14:04:32;;;;;;;3.78;1.20;;;;;;;;;;7388168;19;20389;-84
2022/06/14 14:07:26;;;;;;;1.48;1.10;;;;;;;;;;7395802;19;19999;-87
2022/06/14 14:10:39;;;;;;;2.00;1.20;;;;;;;;;;7392836;19;20006;-85
2022/06/14 14:13:45;;;;;;;2.00;1.05;;;;;;;;;;7392509;19;20026;-85
2022/06/14 14:16:35;;;;;;;1.92;1.00;;;;;;;;;;7392601;19;20139;-84
2022/06/14 14:19:19;;;;;;;2.63;0.98;;;;;;;;;;7389536;19;20014;-84
2022/06/14 14:22:05;;;;;;;1.08;0.85;;;;;;;;;;7392048;19;20015;-86
2022/06/14 14:25:11;;;;;;;1.23;1.13;;;;;;;;;;7390847;19;20027;-85
2022/06/14 14:27:51;;;;;;;4.07;1.17;;;;;;;;;;7390736;19;20486;-84
2022/06/14 14:30:59;;;;;;;5.18;1.10;;;;;;;;;;7394081;19;20038;-85
2022/06/14 14:33:47;;;;;;;1.50;1.20;;;;;;;;;;7389906;19;20003;-84
2022/06/14 14:36:55;;;;;;;2.05;1.00;;;;;;;;;;7392555;19;20082;-84
2022/06/14 14:39:38;;;;;;;3.17;1.45;;;;;;;;;;7389744;19;20329;-85
2022/06/14 14:42:45;;;;;;;4.70;1.42;;;;;;;;;;7389781;19;20023;-87
2022/06/14 14:45:23;;;;;;;1.73;1.08;;;;;;;;;;7390192;19;20011;-85
2022/06/14 14:47:53;;;;;;;2.22;1.20;;;;;;;;;;7393792;19;20002;-85
2022/06/14 14:50:45;;;;;;;2.40;1.40;;;;;;;;;;7390613;19;20398;-85
2022/06/14 14:53:41;;;;;;;1.33;1.00;;;;;;;;;;7392845;19;20006;-86
2022/06/14 14:56:16;;;;;;;2.72;1.30;;;;;;;;;;7390090;19;20346;-85
2022/06/14 14:59:18;;;;;;;3.15;1.05;;;;;;;;;;7389739;19;20065;-84
2022/06/14 15:07:46;;;;;;;2.58;1.10;;;;;;;;;;7392252;19;20402;-86
2022/06/14 15:10:17;;;;;;;2.03;0.90;;;;;;;;;;7391447;19;20011;-85
2022/06/14 15:12:51;;;;;;;3.50;1.25;;;;;;;;;;7392753;19;20003;-86
2022/06/14 15:15:23;;;;;;;1.65;1.10;;;;;;;;;;7388339;19;20070;-85
2022/06/14 15:20:53;;;;;;;1.90;1.10;;;;;;;;;;7390182;19;20046;-84
2022/06/14 15:23:38;;;;;;;4.40;1.20;;;;;;;;;;7389293;19;20010;-84
2022/06/14 15:26:11;;;;;;;3.92;1.20;;;;;;;;;;7387507;19;20006;-85
2022/06/14 15:28:57;;;;;;;1.17;1.00;;;;;;;;;;7387011;19;20030;-85
2022/06/14 15:31:25;;;;;;;1.35;1.15;;;;;;;;;;7389257;19;20017;-85
2022/06/14 15:34:01;;;;;;;3.22;1.40;;;;;;;;;;7388941;19;20081;-85
2022/06/14 15:36:32;;;;;;;1.50;1.00;;;;;;;;;;7384577;19;20090;-85
2022/06/14 15:39:13;;;;;;;1.63;1.13;;;;;;;;;;7391448;19;20023;-85
2022/06/14 15:41:38;;;;;;;3.78;1.10;;;;;;;;;;7392284;19;20026;-86
2022/06/14 15:44:13;;;;;;;3.67;1.20;;;;;;;;;;7387258;19;20006;-85
2022/06/14 15:47:04;;;;;;;3.38;1.20;;;;;;;;;;7385460;19;20319;-85
2022/06/14 15:49:57;;;;;;;0.90;0.90;;;;;;;;;;7388757;19;20019;-86
2022/06/14 15:52:31;;;;;;;2.65;1.10;;;;;;;;;;7391611;19;20494;-86
2022/06/14 15:55:03;;;;;;;2.15;1.42;;;;;;;;;;7386217;19;20507;-85
2022/06/14 15:57:33;;;;;;;2.20;1.20;;;;;;;;;;7387517;19;20022;-85
2022/06/14 16:00:07;;;;;;;2.80;1.17;;;;;;;;;;7385841;19;20035;-86
2022/06/14 16:02:41;;;;;;;1.67;1.00;;;;;;;;;;7387152;19;20001;-84
2022/06/14 16:05:20;;;;;;;2.55;1.20;;;;;;;;;;7396726;19;20365;-87
2022/06/14 16:08:03;;;;;;;1.48;1.02;;;;;;;;;;7397603;19;20020;-85
2022/06/14 16:10:31;;;;;;;1.83;1.10;;;;;;;;;;7397391;19;19998;-86
2022/06/14 16:12:59;;;;;;;1.50;1.05;;;;;;;;;;7397131;19;20383;-85
2022/06/14 16:15:34;;;;;;;1.20;1.05;;;;;;;;;;7395006;19;20011;-85
2022/06/14 16:18:19;;;;;;;1.25;1.00;;;;;;;;;;7393824;19;20010;-86